sensor_id;sensor_type;location;lat;lon;timestamp;P1;durP1;ratioP1;P2;durP2;ratioP2
36105;SDS011;22159;55.736;38.048;2024-03-07T00:02:17;2.95;;;2.10;;
36105;SDS011;22159;55.736;38.048;2024-03-07T00:04:43;3.22;;;2.42;;
36105;SDS011;22159;55.736;38.048;2024-03-07T00:07:10;4.53;;;2.55;;
36105;SDS011;22159;55.736;38.048;2024-03-07T00:09:36;3.60;;;2.47;;
36105;SDS011;22159;55.736;38.048;2024-03-07T00:12:02;2.60;;;2.40;;
36105;SDS011;22159;55.736;38.048;2024-03-07T00:14:29;2.83;;;2.45;;
36105;SDS011;22159;55.736;38.048;2024-03-07T00:16:58;3.17;;;2.67;;
36105;SDS011;22159;55.736;38.048;2024-03-07T00:19:24;2.75;;;2.20;;
36105;SDS011;22159;55.736;38.048;2024-03-07T00:21:55;3.70;;;2.50;;
36105;SDS011;22159;55.736;38.048;2024-03-07T00:24:21;4.43;;;2.88;;
36105;SDS011;22159;55.736;38.048;2024-03-07T00:26:48;2.60;;;2.38;;
36105;SDS011;22159;55.736;38.048;2024-03-07T00:29:17;3.72;;;2.70;;
36105;SDS011;22159;55.736;38.048;2024-03-07T00:31:44;3.45;;;2.58;;
36105;SDS011;22159;55.736;38.048;2024-03-07T00:34:14;4.25;;;2.90;;
36105;SDS011;22159;55.736;38.048;2024-03-07T00:36:45;3.70;;;2.70;;
36105;SDS011;22159;55.736;38.048;2024-03-07T00:39:11;3.10;;;2.60;;
36105;SDS011;22159;55.736;38.048;2024-03-07T00:41:40;5.05;;;3.05;;
36105;SDS011;22159;55.736;38.048;2024-03-07T00:44:07;3.65;;;3.10;;
36105;SDS011;22159;55.736;38.048;2024-03-07T00:46:36;4.80;;;3.15;;
36105;SDS011;22159;55.736;38.048;2024-03-07T00:49:03;3.78;;;2.75;;
36105;SDS011;22159;55.736;38.048;2024-03-07T00:51:29;4.13;;;2.90;;
36105;SDS011;22159;55.736;38.048;2024-03-07T00:53:55;4.57;;;3.03;;
36105;SDS011;22159;55.736;38.048;2024-03-07T00:56:21;4.35;;;3.13;;
36105;SDS011;22159;55.736;38.048;2024-03-07T00:58:48;4.53;;;2.97;;
36105;SDS011;22159;55.736;38.048;2024-03-07T01:01:14;3.08;;;2.70;;
36105;SDS011;22159;55.736;38.048;2024-03-07T01:03:40;4.28;;;2.90;;
36105;SDS011;22159;55.736;38.048;2024-03-07T01:06:07;5.55;;;3.25;;
36105;SDS011;22159;55.736;38.048;2024-03-07T01:08:35;3.85;;;3.13;;
36105;SDS011;22159;55.736;38.048;2024-03-07T01:11:02;4.43;;;3.20;;
36105;SDS011;22159;55.736;38.048;2024-03-07T01:13:35;4.75;;;3.20;;
36105;SDS011;22159;55.736;38.048;2024-03-07T01:16:01;4.50;;;3.35;;
36105;SDS011;22159;55.736;38.048;2024-03-07T01:18:27;4.10;;;3.10;;
36105;SDS011;22159;55.736;38.048;2024-03-07T01:20:53;6.20;;;3.38;;
36105;SDS011;22159;55.736;38.048;2024-03-07T01:23:20;3.88;;;3.42;;
36105;SDS011;22159;55.736;38.048;2024-03-07T01:25:46;5.22;;;3.17;;
36105;SDS011;22159;55.736;38.048;2024-03-07T01:28:12;4.90;;;3.60;;
36105;SDS011;22159;55.736;38.048;2024-03-07T01:30:39;4.00;;;3.10;;
36105;SDS011;22159;55.736;38.048;2024-03-07T01:33:05;4.72;;;3.50;;
36105;SDS011;22159;55.736;38.048;2024-03-07T01:35:31;3.50;;;3.20;;
36105;SDS011;22159;55.736;38.048;2024-03-07T01:37:57;3.90;;;3.42;;
36105;SDS011;22159;55.736;38.048;2024-03-07T01:40:23;3.90;;;2.97;;
36105;SDS011;22159;55.736;38.048;2024-03-07T01:42:50;5.00;;;3.10;;
36105;SDS011;22159;55.736;38.048;2024-03-07T01:45:16;4.38;;;2.90;;
36105;SDS011;22159;55.736;38.048;2024-03-07T01:47:43;4.03;;;3.10;;
36105;SDS011;22159;55.736;38.048;2024-03-07T01:50:10;4.63;;;3.33;;
36105;SDS011;22159;55.736;38.048;2024-03-07T01:52:39;3.85;;;3.05;;
36105;SDS011;22159;55.736;38.048;2024-03-07T01:55:07;3.95;;;3.22;;
36105;SDS011;22159;55.736;38.048;2024-03-07T01:57:36;4.67;;;3.50;;
36105;SDS011;22159;55.736;38.048;2024-03-07T02:00:02;3.92;;;3.45;;
36105;SDS011;22159;55.736;38.048;2024-03-07T02:02:32;4.93;;;3.95;;
36105;SDS011;22159;55.736;38.048;2024-03-07T02:04:59;6.43;;;4.07;;
36105;SDS011;22159;55.736;38.048;2024-03-07T02:07:25;4.40;;;3.80;;
36105;SDS011;22159;55.736;38.048;2024-03-07T02:09:59;4.82;;;4.25;;
36105;SDS011;22159;55.736;38.048;2024-03-07T02:12:25;5.32;;;3.97;;
36105;SDS011;22159;55.736;38.048;2024-03-07T02:14:51;5.10;;;4.10;;
36105;SDS011;22159;55.736;38.048;2024-03-07T02:17:17;5.15;;;4.20;;
36105;SDS011;22159;55.736;38.048;2024-03-07T02:19:45;4.95;;;3.85;;
36105;SDS011;22159;55.736;38.048;2024-03-07T02:22:11;5.43;;;4.05;;
36105;SDS011;22159;55.736;38.048;2024-03-07T02:24:38;5.45;;;4.13;;
36105;SDS011;22159;55.736;38.048;2024-03-07T02:27:04;4.22;;;3.55;;
36105;SDS011;22159;55.736;38.048;2024-03-07T02:29:30;4.03;;;3.55;;
36105;SDS011;22159;55.736;38.048;2024-03-07T02:31:56;4.57;;;3.70;;
36105;SDS011;22159;55.736;38.048;2024-03-07T02:34:22;4.53;;;3.63;;
36105;SDS011;22159;55.736;38.048;2024-03-07T02:36:49;4.95;;;4.05;;
36105;SDS011;22159;55.736;38.048;2024-03-07T02:39:16;5.70;;;3.83;;
36105;SDS011;22159;55.736;38.048;2024-03-07T02:41:42;5.50;;;4.35;;
36105;SDS011;22159;55.736;38.048;2024-03-07T02:44:08;4.20;;;3.78;;
36105;SDS011;22159;55.736;38.048;2024-03-07T02:46:34;5.35;;;4.30;;
36105;SDS011;22159;55.736;38.048;2024-03-07T02:49:01;5.47;;;4.10;;
36105;SDS011;22159;55.736;38.048;2024-03-07T02:51:28;5.35;;;3.95;;
36105;SDS011;22159;55.736;38.048;2024-03-07T02:53:55;5.93;;;3.95;;
36105;SDS011;22159;55.736;38.048;2024-03-07T02:56:21;6.72;;;4.63;;
36105;SDS011;22159;55.736;38.048;2024-03-07T02:58:48;4.68;;;3.88;;
36105;SDS011;22159;55.736;38.048;2024-03-07T03:01:14;5.50;;;4.07;;
36105;SDS011;22159;55.736;38.048;2024-03-07T03:03:40;5.90;;;3.80;;
36105;SDS011;22159;55.736;38.048;2024-03-07T03:06:09;4.53;;;4.10;;
36105;SDS011;22159;55.736;38.048;2024-03-07T03:08:36;4.57;;;3.80;;
36105;SDS011;22159;55.736;38.048;2024-03-07T03:11:03;4.88;;;3.95;;
36105;SDS011;22159;55.736;38.048;2024-03-07T03:13:29;7.53;;;4.07;;
36105;SDS011;22159;55.736;38.048;2024-03-07T03:15:55;5.28;;;4.22;;
36105;SDS011;22159;55.736;38.048;2024-03-07T03:18:22;4.25;;;3.85;;
36105;SDS011;22159;55.736;38.048;2024-03-07T03:20:51;4.90;;;4.13;;
36105;SDS011;22159;55.736;38.048;2024-03-07T03:23:18;4.57;;;3.80;;
36105;SDS011;22159;55.736;38.048;2024-03-07T03:25:45;7.80;;;4.25;;
36105;SDS011;22159;55.736;38.048;2024-03-07T03:28:13;4.65;;;3.78;;
36105;SDS011;22159;55.736;38.048;2024-03-07T03:30:39;5.43;;;3.95;;
36105;SDS011;22159;55.736;38.048;2024-03-07T03:33:08;6.80;;;3.83;;
36105;SDS011;22159;55.736;38.048;2024-03-07T03:35:35;5.63;;;4.28;;
36105;SDS011;22159;55.736;38.048;2024-03-07T03:38:01;9.23;;;4.32;;
36105;SDS011;22159;55.736;38.048;2024-03-07T03:40:27;10.57;;;4.32;;
36105;SDS011;22159;55.736;38.048;2024-03-07T03:42:53;4.82;;;4.07;;
36105;SDS011;22159;55.736;38.048;2024-03-07T03:45:20;6.88;;;4.55;;
36105;SDS011;22159;55.736;38.048;2024-03-07T03:47:46;5.93;;;3.97;;
36105;SDS011;22159;55.736;38.048;2024-03-07T03:50:13;5.28;;;4.07;;
36105;SDS011;22159;55.736;38.048;2024-03-07T03:52:39;7.88;;;4.30;;
36105;SDS011;22159;55.736;38.048;2024-03-07T03:55:06;5.50;;;4.45;;
36105;SDS011;22159;55.736;38.048;2024-03-07T03:57:37;4.97;;;4.43;;
36105;SDS011;22159;55.736;38.048;2024-03-07T04:00:04;4.63;;;3.95;;
36105;SDS011;22159;55.736;38.048;2024-03-07T04:02:37;6.15;;;4.32;;
36105;SDS011;22159;55.736;38.048;2024-03-07T04:05:03;94.45;;;28.55;;
36105;SDS011;22159;55.736;38.048;2024-03-07T04:07:30;73.05;;;24.67;;
36105;SDS011;22159;55.736;38.048;2024-03-07T04:10:00;64.55;;;22.83;;
36105;SDS011;22159;55.736;38.048;2024-03-07T04:12:28;51.13;;;20.13;;
36105;SDS011;22159;55.736;38.048;2024-03-07T04:14:54;47.22;;;18.02;;
36105;SDS011;22159;55.736;38.048;2024-03-07T04:17:21;44.95;;;17.67;;
36105;SDS011;22159;55.736;38.048;2024-03-07T04:19:47;43.28;;;17.50;;
36105;SDS011;22159;55.736;38.048;2024-03-07T04:22:13;32.38;;;14.40;;
36105;SDS011;22159;55.736;38.048;2024-03-07T04:24:39;32.72;;;14.05;;
36105;SDS011;22159;55.736;38.048;2024-03-07T04:27:06;28.08;;;13.02;;
36105;SDS011;22159;55.736;38.048;2024-03-07T04:29:34;30.38;;;12.75;;
36105;SDS011;22159;55.736;38.048;2024-03-07T04:32:01;30.75;;;12.32;;
36105;SDS011;22159;55.736;38.048;2024-03-07T04:34:28;30.55;;;12.02;;
36105;SDS011;22159;55.736;38.048;2024-03-07T04:36:56;21.85;;;10.63;;
36105;SDS011;22159;55.736;38.048;2024-03-07T04:39:23;29.30;;;12.18;;
36105;SDS011;22159;55.736;38.048;2024-03-07T04:41:53;23.95;;;10.20;;
36105;SDS011;22159;55.736;38.048;2024-03-07T04:44:20;20.98;;;10.95;;
36105;SDS011;22159;55.736;38.048;2024-03-07T04:46:50;22.90;;;10.80;;
36105;SDS011;22159;55.736;38.048;2024-03-07T04:49:23;19.23;;;10.02;;
36105;SDS011;22159;55.736;38.048;2024-03-07T04:51:52;19.15;;;9.93;;
36105;SDS011;22159;55.736;38.048;2024-03-07T04:54:19;23.23;;;10.13;;
36105;SDS011;22159;55.736;38.048;2024-03-07T04:56:46;21.40;;;10.38;;
36105;SDS011;22159;55.736;38.048;2024-03-07T04:59:12;21.67;;;10.30;;
36105;SDS011;22159;55.736;38.048;2024-03-07T05:01:39;19.23;;;9.32;;
36105;SDS011;22159;55.736;38.048;2024-03-07T05:04:05;17.52;;;9.48;;
36105;SDS011;22159;55.736;38.048;2024-03-07T05:06:32;19.63;;;9.90;;
36105;SDS011;22159;55.736;38.048;2024-03-07T05:09:01;18.45;;;9.90;;
36105;SDS011;22159;55.736;38.048;2024-03-07T05:11:28;19.33;;;9.55;;
36105;SDS011;22159;55.736;38.048;2024-03-07T05:13:55;12.95;;;8.65;;
36105;SDS011;22159;55.736;38.048;2024-03-07T05:16:23;17.25;;;8.60;;
36105;SDS011;22159;55.736;38.048;2024-03-07T05:18:50;17.70;;;8.95;;
36105;SDS011;22159;55.736;38.048;2024-03-07T05:21:17;19.08;;;9.57;;
36105;SDS011;22159;55.736;38.048;2024-03-07T05:24:01;16.83;;;8.90;;
36105;SDS011;22159;55.736;38.048;2024-03-07T05:26:33;19.30;;;9.35;;
36105;SDS011;22159;55.736;38.048;2024-03-07T05:29:05;14.25;;;8.40;;
36105;SDS011;22159;55.736;38.048;2024-03-07T05:31:41;14.98;;;8.60;;
36105;SDS011;22159;55.736;38.048;2024-03-07T05:34:16;15.45;;;7.93;;
36105;SDS011;22159;55.736;38.048;2024-03-07T05:36:44;13.82;;;8.23;;
36105;SDS011;22159;55.736;38.048;2024-03-07T05:39:14;13.38;;;8.38;;
36105;SDS011;22159;55.736;38.048;2024-03-07T05:41:41;10.73;;;7.13;;
36105;SDS011;22159;55.736;38.048;2024-03-07T05:44:08;17.13;;;8.27;;
36105;SDS011;22159;55.736;38.048;2024-03-07T05:46:40;14.05;;;7.28;;
36105;SDS011;22159;55.736;38.048;2024-03-07T05:49:11;12.45;;;7.30;;
36105;SDS011;22159;55.736;38.048;2024-03-07T05:51:37;12.75;;;6.90;;
36105;SDS011;22159;55.736;38.048;2024-03-07T05:54:03;11.48;;;7.32;;
36105;SDS011;22159;55.736;38.048;2024-03-07T05:56:32;14.27;;;8.05;;
36105;SDS011;22159;55.736;38.048;2024-03-07T05:59:02;11.98;;;7.40;;
36105;SDS011;22159;55.736;38.048;2024-03-07T06:03:59;10.13;;;6.93;;
36105;SDS011;22159;55.736;38.048;2024-03-07T06:06:26;10.25;;;7.03;;
36105;SDS011;22159;55.736;38.048;2024-03-07T06:08:52;10.43;;;7.20;;
36105;SDS011;22159;55.736;38.048;2024-03-07T06:11:18;9.80;;;6.55;;
36105;SDS011;22159;55.736;38.048;2024-03-07T06:13:46;11.15;;;7.28;;
36105;SDS011;22159;55.736;38.048;2024-03-07T06:16:13;9.27;;;6.53;;
36105;SDS011;22159;55.736;38.048;2024-03-07T06:18:42;9.48;;;6.35;;
36105;SDS011;22159;55.736;38.048;2024-03-07T06:21:08;9.60;;;6.63;;
36105;SDS011;22159;55.736;38.048;2024-03-07T06:23:35;9.15;;;6.32;;
36105;SDS011;22159;55.736;38.048;2024-03-07T06:26:01;9.45;;;6.05;;
36105;SDS011;22159;55.736;38.048;2024-03-07T06:28:37;10.27;;;6.60;;
36105;SDS011;22159;55.736;38.048;2024-03-07T06:31:04;10.77;;;6.75;;
36105;SDS011;22159;55.736;38.048;2024-03-07T06:33:33;10.68;;;6.40;;
36105;SDS011;22159;55.736;38.048;2024-03-07T06:35:59;9.07;;;6.45;;
36105;SDS011;22159;55.736;38.048;2024-03-07T06:38:28;9.70;;;6.20;;
36105;SDS011;22159;55.736;38.048;2024-03-07T06:40:54;7.95;;;5.65;;
36105;SDS011;22159;55.736;38.048;2024-03-07T06:43:20;13.43;;;6.85;;
36105;SDS011;22159;55.736;38.048;2024-03-07T06:45:47;9.40;;;6.80;;
36105;SDS011;22159;55.736;38.048;2024-03-07T06:48:15;12.18;;;6.47;;
36105;SDS011;22159;55.736;38.048;2024-03-07T06:50:42;10.60;;;6.10;;
36105;SDS011;22159;55.736;38.048;2024-03-07T06:53:09;9.63;;;6.28;;
36105;SDS011;22159;55.736;38.048;2024-03-07T06:55:35;10.57;;;6.07;;
36105;SDS011;22159;55.736;38.048;2024-03-07T06:58:03;10.18;;;6.25;;
36105;SDS011;22159;55.736;38.048;2024-03-07T07:00:32;11.55;;;6.00;;
36105;SDS011;22159;55.736;38.048;2024-03-07T07:03:02;12.02;;;6.32;;
36105;SDS011;22159;55.736;38.048;2024-03-07T07:05:29;12.43;;;6.40;;
36105;SDS011;22159;55.736;38.048;2024-03-07T07:07:55;10.82;;;5.82;;
36105;SDS011;22159;55.736;38.048;2024-03-07T07:13:07;9.50;;;6.20;;
36105;SDS011;22159;55.736;38.048;2024-03-07T07:15:33;9.35;;;5.93;;
36105;SDS011;22159;55.736;38.048;2024-03-07T07:18:01;9.90;;;6.40;;
36105;SDS011;22159;55.736;38.048;2024-03-07T07:20:28;11.35;;;6.97;;
36105;SDS011;22159;55.736;38.048;2024-03-07T07:22:54;12.15;;;6.72;;
36105;SDS011;22159;55.736;38.048;2024-03-07T07:25:22;9.98;;;6.68;;
36105;SDS011;22159;55.736;38.048;2024-03-07T07:27:50;9.80;;;6.45;;
36105;SDS011;22159;55.736;38.048;2024-03-07T07:30:17;12.07;;;6.72;;
36105;SDS011;22159;55.736;38.048;2024-03-07T07:32:44;8.85;;;6.60;;
36105;SDS011;22159;55.736;38.048;2024-03-07T07:35:11;7.93;;;6.22;;
36105;SDS011;22159;55.736;38.048;2024-03-07T07:37:41;9.85;;;6.07;;
36105;SDS011;22159;55.736;38.048;2024-03-07T07:40:08;10.32;;;6.35;;
36105;SDS011;22159;55.736;38.048;2024-03-07T07:42:37;9.55;;;6.45;;
36105;SDS011;22159;55.736;38.048;2024-03-07T07:45:07;9.15;;;6.50;;
36105;SDS011;22159;55.736;38.048;2024-03-07T07:47:39;10.82;;;7.20;;
36105;SDS011;22159;55.736;38.048;2024-03-07T07:50:10;8.70;;;6.15;;
36105;SDS011;22159;55.736;38.048;2024-03-07T07:53:03;10.13;;;7.10;;
36105;SDS011;22159;55.736;38.048;2024-03-07T07:55:34;10.00;;;6.47;;
36105;SDS011;22159;55.736;38.048;2024-03-07T07:58:00;9.55;;;6.95;;
36105;SDS011;22159;55.736;38.048;2024-03-07T08:00:29;10.43;;;6.72;;
36105;SDS011;22159;55.736;38.048;2024-03-07T08:02:59;11.20;;;7.22;;
36105;SDS011;22159;55.736;38.048;2024-03-07T08:07:56;9.02;;;6.80;;
36105;SDS011;22159;55.736;38.048;2024-03-07T08:10:26;9.60;;;6.70;;
36105;SDS011;22159;55.736;38.048;2024-03-07T08:15:19;10.32;;;6.50;;
36105;SDS011;22159;55.736;38.048;2024-03-07T08:17:46;9.38;;;6.50;;
36105;SDS011;22159;55.736;38.048;2024-03-07T08:20:13;11.85;;;6.70;;
36105;SDS011;22159;55.736;38.048;2024-03-07T08:22:40;8.80;;;5.97;;
36105;SDS011;22159;55.736;38.048;2024-03-07T08:25:07;8.32;;;6.43;;
36105;SDS011;22159;55.736;38.048;2024-03-07T08:27:34;7.75;;;5.97;;
36105;SDS011;22159;55.736;38.048;2024-03-07T08:30:01;9.95;;;6.43;;
36105;SDS011;22159;55.736;38.048;2024-03-07T08:32:27;9.60;;;6.63;;
36105;SDS011;22159;55.736;38.048;2024-03-07T08:34:53;9.32;;;6.15;;
36105;SDS011;22159;55.736;38.048;2024-03-07T08:37:19;8.13;;;5.82;;
36105;SDS011;22159;55.736;38.048;2024-03-07T08:39:46;9.23;;;6.30;;
36105;SDS011;22159;55.736;38.048;2024-03-07T08:42:12;9.45;;;6.20;;
36105;SDS011;22159;55.736;38.048;2024-03-07T08:44:38;10.95;;;6.07;;
36105;SDS011;22159;55.736;38.048;2024-03-07T08:47:04;7.38;;;5.57;;
36105;SDS011;22159;55.736;38.048;2024-03-07T08:49:31;9.90;;;5.90;;
36105;SDS011;22159;55.736;38.048;2024-03-07T08:51:57;8.93;;;5.93;;
36105;SDS011;22159;55.736;38.048;2024-03-07T08:54:23;8.50;;;5.38;;
36105;SDS011;22159;55.736;38.048;2024-03-07T08:56:49;9.68;;;5.97;;
36105;SDS011;22159;55.736;38.048;2024-03-07T08:59:15;11.93;;;5.70;;
36105;SDS011;22159;55.736;38.048;2024-03-07T09:01:43;8.10;;;5.35;;
36105;SDS011;22159;55.736;38.048;2024-03-07T09:04:09;11.93;;;6.15;;
36105;SDS011;22159;55.736;38.048;2024-03-07T09:06:36;8.90;;;5.05;;
36105;SDS011;22159;55.736;38.048;2024-03-07T09:09:03;9.88;;;5.00;;
36105;SDS011;22159;55.736;38.048;2024-03-07T09:11:29;8.18;;;4.82;;
36105;SDS011;22159;55.736;38.048;2024-03-07T09:13:56;8.63;;;5.07;;
36105;SDS011;22159;55.736;38.048;2024-03-07T09:16:23;8.30;;;4.93;;
36105;SDS011;22159;55.736;38.048;2024-03-07T09:18:49;9.07;;;4.85;;
36105;SDS011;22159;55.736;38.048;2024-03-07T09:21:16;8.70;;;4.80;;
36105;SDS011;22159;55.736;38.048;2024-03-07T09:23:43;9.15;;;5.25;;
36105;SDS011;22159;55.736;38.048;2024-03-07T09:26:09;6.18;;;4.95;;
36105;SDS011;22159;55.736;38.048;2024-03-07T09:28:35;6.93;;;4.60;;
36105;SDS011;22159;55.736;38.048;2024-03-07T09:31:01;6.95;;;4.30;;
36105;SDS011;22159;55.736;38.048;2024-03-07T09:33:27;7.00;;;4.47;;
36105;SDS011;22159;55.736;38.048;2024-03-07T09:35:53;9.73;;;4.70;;
36105;SDS011;22159;55.736;38.048;2024-03-07T09:38:19;7.07;;;4.53;;
36105;SDS011;22159;55.736;38.048;2024-03-07T09:40:46;11.07;;;4.65;;
36105;SDS011;22159;55.736;38.048;2024-03-07T09:43:12;6.57;;;4.68;;
36105;SDS011;22159;55.736;38.048;2024-03-07T09:45:38;7.57;;;4.20;;
36105;SDS011;22159;55.736;38.048;2024-03-07T09:48:06;8.60;;;4.65;;
36105;SDS011;22159;55.736;38.048;2024-03-07T09:50:34;6.75;;;4.40;;
36105;SDS011;22159;55.736;38.048;2024-03-07T09:53:01;5.78;;;4.03;;
36105;SDS011;22159;55.736;38.048;2024-03-07T09:55:28;8.50;;;4.55;;
36105;SDS011;22159;55.736;38.048;2024-03-07T09:57:54;7.70;;;4.00;;
36105;SDS011;22159;55.736;38.048;2024-03-07T10:00:21;5.70;;;3.85;;
36105;SDS011;22159;55.736;38.048;2024-03-07T10:02:48;8.00;;;3.65;;
36105;SDS011;22159;55.736;38.048;2024-03-07T10:05:15;7.15;;;3.65;;
36105;SDS011;22159;55.736;38.048;2024-03-07T10:07:44;5.78;;;3.58;;
36105;SDS011;22159;55.736;38.048;2024-03-07T10:10:10;6.43;;;3.60;;
36105;SDS011;22159;55.736;38.048;2024-03-07T10:12:40;5.35;;;4.10;;
36105;SDS011;22159;55.736;38.048;2024-03-07T10:15:07;5.03;;;3.57;;
36105;SDS011;22159;55.736;38.048;2024-03-07T10:17:38;5.13;;;3.45;;
36105;SDS011;22159;55.736;38.048;2024-03-07T10:20:05;4.63;;;3.50;;
36105;SDS011;22159;55.736;38.048;2024-03-07T10:22:35;5.35;;;3.75;;
36105;SDS011;22159;55.736;38.048;2024-03-07T10:25:01;5.20;;;3.63;;
36105;SDS011;22159;55.736;38.048;2024-03-07T10:27:29;5.22;;;3.40;;
36105;SDS011;22159;55.736;38.048;2024-03-07T10:29:55;6.15;;;3.80;;
36105;SDS011;22159;55.736;38.048;2024-03-07T10:32:22;4.72;;;3.10;;
36105;SDS011;22159;55.736;38.048;2024-03-07T10:34:51;3.95;;;3.30;;
36105;SDS011;22159;55.736;38.048;2024-03-07T10:37:18;6.57;;;3.63;;
36105;SDS011;22159;55.736;38.048;2024-03-07T10:39:50;5.78;;;3.28;;
36105;SDS011;22159;55.736;38.048;2024-03-07T10:42:17;4.75;;;3.80;;
36105;SDS011;22159;55.736;38.048;2024-03-07T10:44:47;4.75;;;3.45;;
36105;SDS011;22159;55.736;38.048;2024-03-07T10:47:17;5.90;;;3.30;;
36105;SDS011;22159;55.736;38.048;2024-03-07T10:53:19;4.25;;;3.13;;
36105;SDS011;22159;55.736;38.048;2024-03-07T10:55:18;6.03;;;3.13;;
36105;SDS011;22159;55.736;38.048;2024-03-07T10:57:51;4.35;;;3.13;;
36105;SDS011;22159;55.736;38.048;2024-03-07T11:00:19;5.28;;;3.28;;
36105;SDS011;22159;55.736;38.048;2024-03-07T11:02:55;5.40;;;2.90;;
36105;SDS011;22159;55.736;38.048;2024-03-07T11:05:24;4.97;;;3.25;;
36105;SDS011;22159;55.736;38.048;2024-03-07T11:07:51;4.00;;;2.88;;
36105;SDS011;22159;55.736;38.048;2024-03-07T11:10:18;3.80;;;2.90;;
36105;SDS011;22159;55.736;38.048;2024-03-07T11:12:45;3.92;;;2.50;;
36105;SDS011;22159;55.736;38.048;2024-03-07T11:15:14;4.10;;;2.55;;
36105;SDS011;22159;55.736;38.048;2024-03-07T11:17:45;4.10;;;2.75;;
36105;SDS011;22159;55.736;38.048;2024-03-07T11:22:49;3.42;;;2.90;;
36105;SDS011;22159;55.736;38.048;2024-03-07T11:25:21;3.55;;;2.75;;
36105;SDS011;22159;55.736;38.048;2024-03-07T11:27:54;3.25;;;2.60;;
36105;SDS011;22159;55.736;38.048;2024-03-07T11:30:21;2.83;;;2.30;;
36105;SDS011;22159;55.736;38.048;2024-03-07T11:32:47;4.50;;;2.72;;
36105;SDS011;22159;55.736;38.048;2024-03-07T11:35:15;3.45;;;2.60;;
36105;SDS011;22159;55.736;38.048;2024-03-07T11:37:47;4.20;;;2.90;;
36105;SDS011;22159;55.736;38.048;2024-03-07T11:42:46;4.97;;;2.80;;
36105;SDS011;22159;55.736;38.048;2024-03-07T11:45:18;4.70;;;2.50;;
36105;SDS011;22159;55.736;38.048;2024-03-07T11:47:51;4.60;;;2.65;;
36105;SDS011;22159;55.736;38.048;2024-03-07T11:50:37;3.60;;;2.55;;
36105;SDS011;22159;55.736;38.048;2024-03-07T11:53:03;4.43;;;2.50;;
36105;SDS011;22159;55.736;38.048;2024-03-07T11:55:33;4.32;;;2.50;;
36105;SDS011;22159;55.736;38.048;2024-03-07T11:58:19;5.22;;;3.05;;
36105;SDS011;22159;55.736;38.048;2024-03-07T12:00:49;2.85;;;2.35;;
36105;SDS011;22159;55.736;38.048;2024-03-07T12:03:19;2.73;;;2.40;;
36105;SDS011;22159;55.736;38.048;2024-03-07T12:05:50;5.30;;;2.50;;
36105;SDS011;22159;55.736;38.048;2024-03-07T12:08:17;3.55;;;2.75;;
36105;SDS011;22159;55.736;38.048;2024-03-07T12:10:44;4.50;;;2.40;;
36105;SDS011;22159;55.736;38.048;2024-03-07T12:13:11;4.70;;;2.33;;
36105;SDS011;22159;55.736;38.048;2024-03-07T12:15:40;3.10;;;2.40;;
36105;SDS011;22159;55.736;38.048;2024-03-07T12:18:07;3.35;;;2.17;;
36105;SDS011;22159;55.736;38.048;2024-03-07T12:20:39;3.47;;;2.35;;
36105;SDS011;22159;55.736;38.048;2024-03-07T12:23:06;4.18;;;2.22;;
36105;SDS011;22159;55.736;38.048;2024-03-07T12:25:36;4.07;;;2.45;;
36105;SDS011;22159;55.736;38.048;2024-03-07T12:30:31;3.67;;;1.98;;
36105;SDS011;22159;55.736;38.048;2024-03-07T12:32:58;2.78;;;2.22;;
36105;SDS011;22159;55.736;38.048;2024-03-07T12:35:25;2.78;;;2.03;;
36105;SDS011;22159;55.736;38.048;2024-03-07T12:37:52;3.50;;;2.38;;
36105;SDS011;22159;55.736;38.048;2024-03-07T12:40:19;2.58;;;2.10;;
36105;SDS011;22159;55.736;38.048;2024-03-07T12:42:50;5.38;;;2.00;;
36105;SDS011;22159;55.736;38.048;2024-03-07T12:45:18;2.63;;;1.88;;
36105;SDS011;22159;55.736;38.048;2024-03-07T12:47:48;2.42;;;1.92;;
36105;SDS011;22159;55.736;38.048;2024-03-07T12:52:41;2.22;;;1.75;;
36105;SDS011;22159;55.736;38.048;2024-03-07T12:55:07;3.63;;;1.90;;
36105;SDS011;22159;55.736;38.048;2024-03-07T12:57:34;3.42;;;2.10;;
36105;SDS011;22159;55.736;38.048;2024-03-07T13:00:00;2.33;;;1.83;;
36105;SDS011;22159;55.736;38.048;2024-03-07T13:02:26;2.40;;;1.70;;
36105;SDS011;22159;55.736;38.048;2024-03-07T13:04:54;2.85;;;2.00;;
36105;SDS011;22159;55.736;38.048;2024-03-07T13:07:21;3.03;;;2.10;;
36105;SDS011;22159;55.736;38.048;2024-03-07T13:09:48;2.67;;;1.92;;
36105;SDS011;22159;55.736;38.048;2024-03-07T13:12:14;2.13;;;1.80;;
36105;SDS011;22159;55.736;38.048;2024-03-07T13:14:40;2.05;;;1.73;;
36105;SDS011;22159;55.736;38.048;2024-03-07T13:17:09;2.42;;;1.80;;
36105;SDS011;22159;55.736;38.048;2024-03-07T13:19:39;2.53;;;1.70;;
36105;SDS011;22159;55.736;38.048;2024-03-07T13:22:08;5.05;;;1.63;;
36105;SDS011;22159;55.736;38.048;2024-03-07T13:24:37;2.35;;;1.52;;
36105;SDS011;22159;55.736;38.048;2024-03-07T13:27:04;4.55;;;1.80;;
36105;SDS011;22159;55.736;38.048;2024-03-07T13:29:36;2.10;;;1.63;;
36105;SDS011;22159;55.736;38.048;2024-03-07T13:32:02;2.45;;;1.88;;
36105;SDS011;22159;55.736;38.048;2024-03-07T13:34:29;3.88;;;1.80;;
36105;SDS011;22159;55.736;38.048;2024-03-07T13:36:55;2.05;;;1.38;;
36105;SDS011;22159;55.736;38.048;2024-03-07T13:39:23;2.28;;;1.70;;
36105;SDS011;22159;55.736;38.048;2024-03-07T13:41:49;2.35;;;1.30;;
36105;SDS011;22159;55.736;38.048;2024-03-07T13:44:16;2.38;;;1.75;;
36105;SDS011;22159;55.736;38.048;2024-03-07T13:46:44;2.67;;;1.60;;
36105;SDS011;22159;55.736;38.048;2024-03-07T13:49:10;2.58;;;1.63;;
36105;SDS011;22159;55.736;38.048;2024-03-07T13:51:41;3.95;;;1.52;;
36105;SDS011;22159;55.736;38.048;2024-03-07T13:54:21;2.78;;;1.73;;
36105;SDS011;22159;55.736;38.048;2024-03-07T14:24:08;3.03;;;1.67;;
36105;SDS011;22159;55.736;38.048;2024-03-07T14:31:53;2.25;;;1.73;;
36105;SDS011;22159;55.736;38.048;2024-03-07T14:37:21;2.55;;;1.50;;
36105;SDS011;22159;55.736;38.048;2024-03-07T14:39:46;3.03;;;1.67;;
36105;SDS011;22159;55.736;38.048;2024-03-07T14:42:13;2.15;;;1.80;;
36105;SDS011;22159;55.736;38.048;2024-03-07T14:44:42;2.10;;;1.90;;
36105;SDS011;22159;55.736;38.048;2024-03-07T14:47:11;2.72;;;1.77;;
36105;SDS011;22159;55.736;38.048;2024-03-07T14:49:39;2.75;;;2.03;;
36105;SDS011;22159;55.736;38.048;2024-03-07T14:52:06;3.35;;;1.98;;
36105;SDS011;22159;55.736;38.048;2024-03-07T14:54:40;2.78;;;1.65;;
36105;SDS011;22159;55.736;38.048;2024-03-07T14:57:09;2.38;;;1.90;;
36105;SDS011;22159;55.736;38.048;2024-03-07T14:59:36;2.00;;;1.80;;
36105;SDS011;22159;55.736;38.048;2024-03-07T15:02:03;3.67;;;2.40;;
36105;SDS011;22159;55.736;38.048;2024-03-07T15:04:29;4.03;;;2.47;;
36105;SDS011;22159;55.736;38.048;2024-03-07T15:06:57;3.08;;;2.30;;
36105;SDS011;22159;55.736;38.048;2024-03-07T15:09:24;4.90;;;2.63;;
36105;SDS011;22159;55.736;38.048;2024-03-07T15:11:55;3.13;;;2.40;;
36105;SDS011;22159;55.736;38.048;2024-03-07T15:14:22;3.47;;;2.42;;
36105;SDS011;22159;55.736;38.048;2024-03-07T15:16:48;3.40;;;2.30;;
36105;SDS011;22159;55.736;38.048;2024-03-07T15:19:14;4.72;;;3.13;;
36105;SDS011;22159;55.736;38.048;2024-03-07T15:21:40;4.07;;;2.83;;
36105;SDS011;22159;55.736;38.048;2024-03-07T15:24:07;4.28;;;2.85;;
36105;SDS011;22159;55.736;38.048;2024-03-07T15:26:33;4.13;;;3.05;;
36105;SDS011;22159;55.736;38.048;2024-03-07T15:29:00;5.30;;;3.20;;
36105;SDS011;22159;55.736;38.048;2024-03-07T15:31:26;4.28;;;3.25;;
36105;SDS011;22159;55.736;38.048;2024-03-07T15:33:52;3.40;;;2.67;;